createdAt,value
2017-07-14T00:02:27.473Z,51.20
2017-07-14T00:04:55.732Z,46.40
2017-07-14T00:07:24.004Z,47.10
2017-07-14T00:09:52.309Z,48.70
2017-07-14T00:12:20.581Z,49.60
2017-07-14T00:14:48.849Z,50.50
2017-07-14T00:17:17.136Z,53.20
2017-07-14T00:19:45.407Z,50.10
2017-07-14T00:22:13.665Z,49.80
2017-07-14T00:24:41.974Z,52.70
2017-07-14T00:27:10.227Z,50.70
2017-07-14T00:29:38.511Z,53.30
2017-07-14T00:32:06.791Z,52.00
2017-07-14T00:34:35.058Z,48.40
2017-07-14T00:37:03.332Z,47.30
2017-07-14T00:39:31.856Z,47.30
2017-07-14T00:42:01.253Z,48.40
2017-07-14T00:44:29.541Z,48.40
2017-07-14T00:46:58.233Z,49.50
2017-07-14T00:49:26.487Z,49.50
2017-07-14T00:51:55.131Z,51.70
2017-07-14T00:54:23.406Z,51.70
2017-07-14T00:56:51.683Z,52.30
2017-07-14T00:59:19.919Z,52.40
2017-07-14T01:01:48.196Z,54.60
2017-07-14T01:04:16.456Z,51.80
2017-07-14T01:06:44.967Z,50.80
2017-07-14T01:09:13.281Z,50.10
2017-07-14T01:11:41.533Z,50.10
2017-07-14T01:14:09.786Z,50.10
2017-07-14T01:16:38.050Z,51.40
2017-07-14T01:19:06.587Z,51.10
2017-07-14T01:21:34.825Z,51.40
2017-07-14T01:24:03.135Z,51.40
2017-07-14T01:26:31.384Z,51.50
2017-07-14T01:28:59.672Z,52.00
2017-07-14T01:31:27.983Z,52.40
2017-07-14T01:33:56.242Z,52.40
2017-07-14T01:36:24.498Z,52.00
2017-07-14T01:38:52.773Z,52.00
2017-07-14T01:41:21.072Z,51.40
2017-07-14T01:43:49.323Z,52.90
2017-07-14T01:46:17.610Z,51.80
2017-07-14T01:48:46.112Z,50.70
2017-07-14T01:51:14.388Z,50.70
2017-07-14T01:53:42.675Z,50.80
2017-07-14T01:56:10.942Z,50.70
2017-07-14T01:58:39.252Z,53.00
2017-07-14T02:01:08.166Z,53.30
2017-07-14T02:03:36.425Z,53.30
2017-07-14T02:06:04.709Z,53.00
2017-07-14T02:08:33.038Z,50.20
2017-07-14T02:11:01.324Z,50.20
2017-07-14T02:13:29.549Z,49.60
2017-07-14T02:15:57.840Z,50.90
2017-07-14T02:18:26.086Z,50.50
2017-07-14T02:20:54.344Z,51.40
2017-07-14T02:23:22.636Z,52.10
2017-07-14T02:25:50.885Z,52.00
2017-07-14T02:28:19.529Z,52.90
2017-07-14T02:30:47.822Z,52.90
2017-07-14T02:33:16.093Z,53.60
2017-07-14T02:35:44.355Z,52.90
2017-07-14T02:38:12.645Z,53.80
2017-07-14T02:40:40.921Z,53.00
2017-07-14T02:43:09.186Z,53.20
2017-07-14T02:45:37.479Z,52.90
2017-07-14T02:48:05.740Z,53.50
2017-07-14T02:50:34.009Z,53.80
2017-07-14T02:53:02.393Z,54.30
2017-07-14T02:55:30.880Z,52.90
2017-07-14T02:57:59.137Z,51.20
2017-07-14T03:00:27.442Z,50.70
2017-07-14T03:02:55.702Z,49.60
2017-07-14T03:05:23.963Z,48.10
2017-07-14T03:07:52.326Z,48.60
2017-07-14T03:10:20.585Z,50.50
2017-07-14T03:12:49.241Z,49.80
2017-07-14T03:15:17.516Z,49.60
2017-07-14T03:17:45.992Z,49.60
2017-07-14T03:20:14.227Z,51.10
2017-07-14T03:22:42.524Z,48.40
2017-07-14T03:25:10.804Z,49.60
2017-07-14T03:27:39.281Z,50.10
2017-07-14T03:30:10.120Z,52.60
2017-07-14T03:32:38.412Z,51.40
2017-07-14T03:35:06.891Z,49.80
2017-07-14T03:37:35.181Z,48.70
2017-07-14T03:40:03.600Z,47.10
2017-07-14T03:42:32.233Z,48.60
2017-07-14T03:45:00.535Z,48.60
2017-07-14T03:47:28.778Z,49.80
2017-07-14T03:49:57.262Z,50.70
2017-07-14T03:52:25.551Z,50.90
2017-07-14T03:54:53.810Z,50.70
2017-07-14T03:57:22.061Z,47.50
2017-07-14T03:59:50.349Z,47.50
2017-07-14T04:02:18.819Z,48.30
2017-07-14T04:04:47.069Z,48.70
2017-07-14T04:07:15.378Z,49.30
2017-07-14T04:09:43.682Z,49.90
2017-07-14T04:12:11.931Z,50.20
2017-07-14T04:14:40.225Z,50.90
2017-07-14T04:17:08.481Z,51.70
2017-07-14T04:19:36.735Z,52.40
2017-07-14T04:22:05.019Z,52.90
2017-07-14T04:24:33.647Z,53.50
2017-07-14T04:27:01.957Z,52.60
2017-07-14T04:29:30.639Z,52.40
2017-07-14T04:31:59.274Z,52.90
2017-07-14T04:34:27.530Z,52.90
2017-07-14T04:36:55.810Z,53.20
2017-07-14T04:39:24.062Z,53.00
2017-07-14T04:41:52.309Z,53.60
2017-07-14T04:44:20.590Z,52.00
2017-07-14T04:46:48.858Z,51.50
2017-07-14T04:49:17.099Z,51.50
2017-07-14T04:51:45.409Z,52.00
2017-07-14T04:54:13.661Z,51.20
2017-07-14T04:56:41.925Z,51.70
2017-07-14T04:59:10.266Z,51.80
2017-07-14T05:01:38.577Z,52.00
2017-07-14T05:04:06.866Z,51.80
2017-07-14T05:06:35.222Z,50.70
2017-07-14T05:09:03.500Z,51.20
2017-07-14T05:11:31.779Z,51.10
2017-07-14T05:14:00.309Z,51.40
2017-07-14T05:16:28.577Z,51.80
2017-07-14T05:18:56.842Z,51.20
2017-07-14T05:21:25.389Z,51.10
2017-07-14T05:23:53.670Z,51.40
2017-07-14T05:26:21.906Z,51.70
2017-07-14T05:28:50.604Z,51.10
2017-07-14T05:31:18.875Z,51.10
2017-07-14T05:33:47.525Z,50.50
2017-07-14T05:36:15.824Z,50.50
2017-07-14T05:38:44.495Z,50.20
2017-07-14T05:41:12.765Z,50.20
2017-07-14T05:43:41.057Z,50.40
2017-07-14T05:46:09.343Z,49.80
2017-07-14T05:48:37.618Z,49.60
2017-07-14T05:51:05.943Z,49.60
2017-07-14T05:53:34.899Z,50.10
2017-07-14T05:56:03.166Z,49.60
2017-07-14T05:58:31.571Z,48.40
2017-07-14T06:00:59.865Z,46.50
2017-07-14T06:03:28.212Z,46.70
2017-07-14T06:05:56.657Z,46.20
2017-07-14T06:08:24.917Z,45.00
2017-07-14T06:10:53.193Z,47.30
2017-07-14T06:13:21.484Z,46.80
2017-07-14T06:18:24.375Z,44.40
2017-07-14T06:20:52.687Z,41.80
2017-07-14T06:23:20.944Z,39.10
2017-07-14T06:25:49.214Z,40.30
2017-07-14T06:28:17.492Z,40.60
2017-07-14T06:30:45.828Z,40.90
2017-07-14T06:33:14.164Z,40.00
2017-07-14T06:35:42.425Z,40.70
2017-07-14T06:38:10.708Z,42.40
2017-07-14T06:40:39.419Z,43.00
2017-07-14T06:43:07.917Z,43.00
2017-07-14T06:45:36.171Z,44.00
2017-07-14T06:48:04.876Z,52.00
2017-07-14T06:50:33.139Z,52.00
2017-07-14T06:53:01.398Z,53.00
2017-07-14T06:55:30.185Z,51.20
2017-07-14T06:57:58.837Z,50.20
2017-07-14T07:00:27.561Z,50.20
2017-07-14T07:02:57.265Z,49.00
2017-07-14T07:05:25.505Z,49.20
2017-07-14T07:07:53.769Z,49.30
2017-07-14T07:10:22.060Z,48.70
2017-07-14T07:12:50.321Z,47.40
2017-07-14T07:15:18.571Z,46.40
2017-07-14T07:17:47.031Z,46.20
2017-07-14T07:20:16.205Z,46.50
2017-07-14T07:22:44.516Z,46.50
2017-07-14T07:25:12.792Z,47.40
2017-07-14T07:27:41.036Z,46.70
2017-07-14T07:30:09.296Z,43.60
2017-07-14T07:32:37.695Z,41.20
2017-07-14T07:35:05.935Z,40.30
2017-07-14T07:37:34.186Z,43.30
2017-07-14T07:40:02.492Z,42.10
2017-07-14T07:42:30.993Z,41.30
2017-07-14T07:44:59.230Z,41.80
2017-07-14T07:47:33.575Z,44.60
2017-07-14T07:50:02.615Z,44.00
2017-07-14T07:52:31.027Z,44.00
2017-07-14T07:54:59.327Z,41.00
2017-07-14T07:57:27.603Z,39.10
2017-07-14T07:59:55.841Z,39.70
2017-07-14T08:02:24.121Z,41.50
2017-07-14T08:04:52.390Z,41.60
2017-07-14T08:07:20.621Z,39.70
2017-07-14T08:09:48.882Z,39.70
2017-07-14T08:12:17.120Z,40.60
2017-07-14T08:14:45.360Z,42.10
2017-07-14T08:17:13.648Z,41.20
2017-07-14T08:19:42.005Z,39.30
2017-07-14T08:22:10.308Z,37.50
2017-07-14T08:24:38.584Z,36.80
2017-07-14T08:27:06.817Z,35.60
2017-07-14T08:29:35.773Z,34.70
2017-07-14T08:32:04.929Z,31.30
2017-07-14T08:34:34.528Z,32.00
2017-07-14T08:37:03.581Z,32.00
2017-07-14T08:39:31.852Z,32.50
2017-07-14T08:42:00.092Z,32.80
2017-07-14T08:44:28.781Z,34.00
2017-07-14T08:46:57.130Z,34.00
2017-07-14T08:49:25.797Z,33.10
2017-07-14T08:51:55.223Z,33.10
2017-07-14T08:54:26.270Z,31.30
2017-07-14T08:56:54.533Z,32.80
2017-07-14T08:59:22.773Z,32.60
2017-07-14T09:01:51.296Z,32.60
2017-07-14T09:04:19.527Z,31.70
2017-07-14T09:06:47.777Z,33.10
2017-07-14T09:09:16.058Z,33.20
2017-07-14T09:11:44.605Z,33.40
2017-07-14T09:14:12.846Z,31.10
2017-07-14T09:16:41.265Z,30.80
2017-07-14T09:19:09.486Z,31.40
2017-07-14T09:21:37.731Z,32.00
2017-07-14T09:24:06.703Z,32.20
2017-07-14T09:26:34.936Z,32.20
2017-07-14T09:29:03.197Z,31.40
2017-07-14T09:31:31.446Z,35.10
2017-07-14T09:33:59.710Z,34.20
2017-07-14T09:36:27.950Z,33.70
2017-07-14T09:38:56.283Z,33.50
2017-07-14T09:41:24.545Z,32.90
2017-07-14T09:43:52.778Z,33.40
2017-07-14T09:46:21.387Z,31.10
2017-07-14T09:48:49.630Z,34.10
2017-07-14T09:51:17.868Z,33.70
2017-07-14T09:53:46.547Z,34.50
2017-07-14T09:56:14.798Z,34.50
2017-07-14T09:58:44.089Z,34.40
2017-07-14T10:01:12.367Z,31.70
2017-07-14T10:03:40.608Z,34.50
2017-07-14T10:06:08.848Z,34.70
2017-07-14T10:08:37.535Z,33.80
2017-07-14T10:11:06.172Z,34.10
2017-07-14T10:13:34.421Z,34.10
2017-07-14T10:16:02.698Z,34.50
2017-07-14T10:18:31.861Z,34.20
2017-07-14T10:21:00.216Z,34.20
2017-07-14T10:23:28.481Z,34.50
2017-07-14T10:25:56.746Z,31.90
2017-07-14T10:28:25.003Z,34.10
2017-07-14T10:30:53.417Z,33.20
2017-07-14T10:33:21.655Z,32.80
2017-07-14T10:35:50.192Z,32.30
2017-07-14T10:38:18.514Z,32.00
2017-07-14T10:40:46.748Z,32.30
2017-07-14T10:43:15.206Z,33.50
2017-07-14T10:45:43.493Z,35.30
2017-07-14T10:48:11.790Z,34.50
2017-07-14T10:50:40.616Z,33.80
2017-07-14T10:53:14.928Z,35.00
2017-07-14T10:55:43.961Z,37.10
2017-07-14T10:58:12.218Z,35.70
2017-07-14T11:00:40.484Z,34.50
2017-07-14T11:03:08.726Z,35.40
2017-07-14T11:05:37.393Z,35.60
2017-07-14T11:08:05.673Z,35.60
2017-07-14T11:10:33.908Z,36.60
2017-07-14T11:13:02.167Z,35.10
2017-07-14T11:15:30.440Z,33.20
2017-07-14T11:17:58.751Z,34.10
2017-07-14T11:20:27.004Z,30.70
2017-07-14T11:22:55.384Z,32.30
2017-07-14T11:25:23.744Z,35.10
2017-07-14T11:27:51.976Z,29.90
2017-07-14T11:30:20.240Z,29.10
2017-07-14T11:32:48.728Z,30.40
2017-07-14T11:35:16.969Z,28.80
2017-07-14T11:37:45.257Z,29.20
2017-07-14T11:40:13.491Z,31.10
2017-07-14T11:42:42.503Z,31.70
2017-07-14T11:45:10.776Z,31.30
2017-07-14T11:47:39.712Z,31.70
2017-07-14T11:50:07.949Z,31.70
2017-07-14T11:52:37.656Z,31.10
2017-07-14T11:55:05.916Z,31.10
2017-07-14T11:57:34.243Z,29.30
2017-07-14T12:00:02.548Z,29.50
2017-07-14T12:02:31.201Z,31.40
2017-07-14T12:04:59.482Z,31.40
2017-07-14T12:07:27.722Z,32.80
2017-07-14T12:09:56.054Z,32.50
2017-07-14T12:12:24.355Z,27.10
2017-07-14T12:14:52.656Z,27.20
2017-07-14T12:17:20.876Z,26.60
2017-07-14T12:19:49.136Z,29.10
2017-07-14T12:22:17.410Z,29.80
2017-07-14T12:24:45.646Z,27.90
2017-07-14T12:27:14.175Z,26.00
2017-07-14T12:29:42.763Z,26.20
2017-07-14T12:32:11.036Z,28.20
2017-07-14T12:34:39.281Z,25.70
2017-07-14T12:37:07.897Z,24.60
2017-07-14T12:39:36.133Z,24.00
2017-07-14T12:42:04.364Z,26.90
2017-07-14T12:44:32.666Z,28.70
2017-07-14T12:47:00.904Z,28.60
2017-07-14T12:49:29.380Z,28.10
2017-07-14T12:51:57.640Z,29.50
2017-07-14T12:54:26.304Z,32.80
2017-07-14T12:56:54.819Z,32.80
2017-07-14T12:59:23.088Z,31.30
2017-07-14T13:01:51.324Z,31.00
2017-07-14T13:04:19.561Z,31.10
2017-07-14T13:06:47.814Z,29.80
2017-07-14T13:09:16.071Z,30.70
2017-07-14T13:11:44.307Z,30.60
2017-07-14T13:14:12.578Z,29.40
2017-07-14T13:16:40.922Z,28.70
2017-07-14T13:19:09.190Z,28.30
2017-07-14T13:21:37.496Z,28.10
2017-07-14T13:24:05.960Z,27.70
2017-07-14T13:26:34.210Z,27.80
2017-07-14T13:29:02.469Z,25.80
2017-07-14T13:31:30.718Z,27.00
2017-07-14T13:33:58.965Z,28.00
2017-07-14T13:36:27.259Z,29.60
2017-07-14T13:38:55.508Z,26.80
2017-07-14T13:41:23.745Z,25.90
2017-07-14T13:43:52.057Z,27.50
2017-07-14T13:46:20.297Z,28.90
2017-07-14T13:48:48.681Z,26.50
2017-07-14T13:51:17.204Z,26.70
2017-07-14T13:53:45.468Z,26.90
2017-07-14T13:56:13.698Z,28.40
2017-07-14T13:58:42.014Z,27.50
2017-07-14T14:01:10.273Z,27.40
2017-07-14T14:03:39.028Z,27.80
2017-07-14T14:06:07.309Z,26.70
2017-07-14T14:08:35.546Z,26.50
2017-07-14T14:11:03.784Z,28.50
2017-07-14T14:13:32.055Z,29.70
2017-07-14T14:16:00.280Z,31.40
2017-07-14T14:18:28.525Z,32.30
2017-07-14T14:20:56.914Z,32.50
2017-07-14T14:23:25.169Z,32.00
2017-07-14T14:25:53.688Z,30.10
2017-07-14T14:28:22.001Z,29.60
2017-07-14T14:30:50.477Z,29.50
2017-07-14T14:33:18.735Z,29.10
2017-07-14T14:35:47.016Z,29.20
2017-07-14T14:38:15.649Z,28.70
2017-07-14T14:40:44.810Z,28.70
2017-07-14T14:43:13.105Z,29.00
2017-07-14T14:45:41.360Z,28.80
2017-07-14T14:48:09.575Z,28.70
2017-07-14T14:50:38.081Z,28.90
2017-07-14T14:53:06.563Z,28.90
2017-07-14T14:55:34.807Z,27.70
2017-07-14T14:58:03.093Z,29.00
2017-07-14T15:00:31.316Z,28.70
2017-07-14T15:02:59.950Z,29.00
2017-07-14T15:05:28.245Z,29.00
2017-07-14T15:07:56.475Z,29.10
2017-07-14T15:10:26.149Z,27.80
2017-07-14T15:13:00.783Z,28.50
2017-07-14T15:15:29.701Z,29.50
2017-07-14T15:17:58.016Z,29.60
2017-07-14T15:20:26.271Z,29.40
2017-07-14T15:22:54.783Z,29.40
2017-07-14T15:25:23.013Z,29.10
2017-07-14T15:27:52.199Z,28.40
2017-07-14T15:30:20.433Z,29.30
2017-07-14T15:32:49.116Z,29.60
2017-07-14T15:35:17.386Z,28.20
2017-07-14T15:37:45.620Z,27.90
2017-07-14T15:40:14.156Z,29.80
2017-07-14T15:42:42.728Z,30.30
2017-07-14T15:45:10.984Z,29.90
2017-07-14T15:47:39.210Z,29.90
2017-07-14T15:50:07.909Z,27.90
2017-07-14T15:52:36.237Z,27.80
2017-07-14T15:55:04.459Z,27.80
2017-07-14T15:57:32.728Z,27.80
2017-07-14T16:00:01.357Z,27.70
2017-07-14T16:02:29.617Z,27.70
2017-07-14T16:04:57.885Z,28.60
2017-07-14T16:07:26.145Z,28.20
2017-07-14T16:09:54.500Z,29.10
2017-07-14T16:12:22.800Z,29.20
2017-07-14T16:14:51.077Z,27.70
2017-07-14T16:17:19.342Z,27.30
2017-07-14T16:19:47.614Z,28.90
2017-07-14T16:22:16.265Z,28.90
2017-07-14T16:24:44.501Z,28.90
2017-07-14T16:27:12.821Z,27.10
2017-07-14T16:29:41.094Z,27.10
2017-07-14T16:32:09.339Z,27.30
2017-07-14T16:34:37.622Z,27.30
2017-07-14T16:37:05.895Z,27.60
2017-07-14T16:39:34.197Z,28.20
2017-07-14T16:42:02.557Z,28.20
2017-07-14T16:44:30.802Z,28.60
2017-07-14T16:46:59.836Z,27.70
2017-07-14T16:49:28.117Z,28.10
2017-07-14T16:51:56.353Z,29.40
2017-07-14T16:54:24.602Z,28.30
2017-07-14T16:56:53.293Z,28.40
2017-07-14T16:59:21.624Z,28.50
2017-07-14T17:01:49.946Z,28.60
2017-07-14T17:04:18.613Z,29.80
2017-07-14T17:06:46.857Z,29.80
2017-07-14T17:09:15.097Z,29.60
2017-07-14T17:11:43.371Z,27.70
2017-07-14T17:14:11.852Z,28.90
2017-07-14T17:16:40.153Z,27.70
2017-07-14T17:19:08.406Z,28.70
2017-07-14T17:21:36.674Z,28.00
2017-07-14T17:24:04.928Z,28.40
2017-07-14T17:26:33.259Z,28.70
2017-07-14T17:29:01.502Z,30.30
2017-07-14T17:31:29.815Z,28.40
2017-07-14T17:33:58.373Z,28.30
2017-07-14T17:36:26.740Z,28.60
2017-07-14T17:38:55.486Z,28.70
2017-07-14T17:41:23.777Z,29.40
2017-07-14T17:43:52.076Z,30.70
2017-07-14T17:46:20.370Z,31.60
2017-07-14T17:48:49.003Z,31.00
2017-07-14T17:51:17.776Z,28.80
2017-07-14T17:53:46.376Z,29.30
2017-07-14T17:56:14.662Z,31.30
2017-07-14T17:58:44.230Z,30.70
2017-07-14T18:01:12.497Z,30.70
2017-07-14T18:03:40.791Z,29.90
2017-07-14T18:06:09.074Z,28.20
2017-07-14T18:08:37.310Z,28.60
2017-07-14T18:11:05.667Z,28.90
2017-07-14T18:13:33.970Z,29.70
2017-07-14T18:16:02.548Z,28.60
2017-07-14T18:18:30.804Z,29.40
2017-07-14T18:20:59.046Z,28.60
2017-07-14T18:23:27.296Z,29.10
2017-07-14T18:25:56.009Z,29.20
2017-07-14T18:28:24.280Z,30.60
2017-07-14T18:30:52.826Z,29.10
2017-07-14T18:33:21.896Z,29.90
2017-07-14T18:35:50.165Z,30.40
2017-07-14T18:38:19.269Z,30.60
2017-07-14T18:40:47.866Z,30.60
2017-07-14T18:43:16.141Z,31.00
2017-07-14T18:45:44.666Z,31.60
2017-07-14T18:48:14.116Z,32.90
2017-07-14T18:50:42.626Z,32.50
2017-07-14T18:53:10.870Z,33.20
2017-07-14T18:55:39.606Z,32.30
2017-07-14T18:58:08.153Z,32.60
2017-07-14T19:00:36.484Z,33.40
2017-07-14T19:03:04.820Z,33.70
2017-07-14T19:05:33.077Z,34.10
2017-07-14T19:08:01.361Z,34.20
2017-07-14T19:10:30.080Z,34.20
2017-07-14T19:12:58.332Z,34.40
2017-07-14T19:15:26.581Z,34.20
2017-07-14T19:17:55.057Z,34.70
2017-07-14T19:20:23.419Z,34.20
2017-07-14T19:22:51.653Z,34.20
2017-07-14T19:25:19.947Z,33.80
2017-07-14T19:27:48.204Z,33.40
2017-07-14T19:30:16.480Z,34.40
2017-07-14T19:32:44.773Z,34.00
2017-07-14T19:35:13.024Z,34.00
2017-07-14T19:37:41.294Z,34.10
2017-07-14T19:40:09.613Z,34.40
2017-07-14T19:42:37.836Z,35.40
2017-07-14T19:45:06.088Z,35.10
2017-07-14T19:47:34.357Z,36.00
2017-07-14T19:50:02.631Z,36.60
2017-07-14T19:52:30.871Z,37.20
2017-07-14T19:54:59.142Z,38.10
2017-07-14T19:57:27.390Z,38.50
2017-07-14T19:59:55.641Z,38.80
2017-07-14T20:02:25.572Z,40.20
2017-07-14T20:04:53.798Z,40.20
2017-07-14T20:07:22.043Z,40.70
2017-07-14T20:09:50.329Z,41.00
2017-07-14T20:12:18.580Z,41.00
2017-07-14T20:14:47.443Z,41.60
2017-07-14T20:17:16.161Z,42.40
2017-07-14T20:19:45.000Z,42.50
2017-07-14T20:22:13.276Z,43.00
2017-07-14T20:24:41.756Z,42.80
2017-07-14T20:27:09.991Z,43.10
2017-07-14T20:29:38.231Z,43.60
2017-07-14T20:32:06.540Z,44.30
2017-07-14T20:34:34.790Z,44.40
2017-07-14T20:37:03.764Z,44.90
2017-07-14T20:39:32.229Z,44.90
2017-07-14T20:42:00.508Z,44.90
2017-07-14T20:44:28.748Z,45.60
2017-07-14T20:46:57.017Z,45.50
2017-07-14T20:49:25.265Z,45.60
2017-07-14T20:51:53.906Z,45.30
2017-07-14T20:54:22.170Z,45.30
2017-07-14T20:56:50.653Z,45.50
2017-07-14T20:59:18.897Z,44.60
2017-07-14T21:01:48.031Z,44.10
2017-07-14T21:04:16.282Z,44.60
2017-07-14T21:06:44.527Z,44.70
2017-07-14T21:09:13.217Z,44.30
2017-07-14T21:11:41.857Z,45.00
2017-07-14T21:14:10.113Z,45.00
2017-07-14T21:16:38.389Z,47.00
2017-07-14T21:19:06.639Z,44.90
2017-07-14T21:21:35.282Z,44.30
2017-07-14T21:24:08.191Z,44.30
2017-07-14T21:26:40.342Z,44.60
2017-07-14T21:29:08.628Z,44.70
2017-07-14T21:31:36.881Z,46.50
2017-07-14T21:34:05.154Z,45.80
2017-07-14T21:36:35.601Z,49.20
2017-07-14T21:39:03.996Z,45.20
2017-07-14T21:41:32.221Z,43.90
2017-07-14T21:44:00.533Z,44.90
2017-07-14T21:46:28.826Z,45.60
2017-07-14T21:48:57.458Z,47.30
2017-07-14T21:51:25.754Z,47.30
2017-07-14T21:53:53.999Z,48.40
2017-07-14T21:56:22.270Z,48.60
2017-07-14T21:58:50.525Z,50.40
2017-07-14T22:01:18.773Z,51.70
2017-07-14T22:03:47.035Z,52.90
2017-07-14T22:06:15.324Z,53.60
2017-07-14T22:08:43.578Z,53.20
2017-07-14T22:11:11.843Z,52.40
2017-07-14T22:13:40.139Z,51.70
2017-07-14T22:16:08.555Z,51.40
2017-07-14T22:18:36.964Z,51.10
2017-07-14T22:21:05.340Z,50.90
2017-07-14T22:23:33.575Z,50.90
2017-07-14T22:26:01.849Z,51.10
2017-07-14T22:28:30.161Z,51.40
2017-07-14T22:30:58.413Z,51.80
2017-07-14T22:33:28.772Z,52.10
2017-07-14T22:35:57.028Z,52.30
2017-07-14T22:38:25.289Z,52.40
2017-07-14T22:40:53.545Z,52.70
2017-07-14T22:43:21.898Z,53.00
2017-07-14T22:45:50.160Z,53.20
2017-07-14T22:48:18.393Z,53.60
2017-07-14T22:50:47.061Z,53.90
2017-07-14T22:53:15.422Z,53.80
2017-07-14T22:55:43.655Z,54.10
2017-07-14T22:58:11.949Z,54.20
2017-07-14T23:00:40.217Z,54.20
2017-07-14T23:03:08.464Z,54.60
2017-07-14T23:05:36.757Z,54.90
2017-07-14T23:08:05.008Z,55.40
2017-07-14T23:10:33.657Z,56.00
2017-07-14T23:13:01.928Z,56.00
2017-07-14T23:15:30.174Z,56.60
2017-07-14T23:17:58.418Z,57.30
2017-07-14T23:20:27.099Z,57.30
2017-07-14T23:22:55.336Z,57.30
2017-07-14T23:25:23.586Z,57.00
2017-07-14T23:27:51.878Z,56.40
2017-07-14T23:30:20.232Z,55.80
2017-07-14T23:32:48.458Z,55.40
2017-07-14T23:35:16.729Z,55.20
2017-07-14T23:37:45.059Z,54.80
2017-07-14T23:40:13.304Z,53.80
2017-07-14T23:42:41.589Z,53.50
2017-07-14T23:45:10.246Z,53.60
2017-07-14T23:47:38.838Z,53.60
2017-07-14T23:50:07.125Z,54.10
2017-07-14T23:52:35.360Z,54.30
2017-07-14T23:55:03.636Z,54.60
2017-07-14T23:57:31.922Z,54.60
